Time;durP1;ratioP1;P1;durP2;ratioP2;P2;SDS_P1;SDS_P2;PMS_P1;PMS_P2;Temp;Humidity;BMP_temperature;BMP_pressure;BME280_temperature;BME280_humidity;BME280_pressure;Samples;Min_cycle;Max_cycle;Signal;HPM_P1;HPM_P2
2024/01/26 12:45:30;;;;;;;4.20;0.73;;;;;;;14.74;34.32;99238.44;5710223;23;20323;-92
2024/01/26 12:48:43;;;;;;;1.33;0.70;;;;;;;14.81;33.64;99244.13;4939722;29;20234;-94
2024/01/26 12:51:18;;;;;;;2.60;0.73;;;;;;;14.88;34.31;99251.53;4940411;28;20191;-92
2024/01/26 12:54:15;;;;;;;2.30;1.00;;;;;;;14.72;33.72;99245.59;4954327;28;20618;-91
2024/01/26 12:56:44;;;;;;;2.80;0.90;;;;;;;14.33;34.24;99259.66;4938417;29;20572;-90
2024/01/26 13:00:26;;;;;;;4.63;1.00;;;;;;;14.69;34.41;99262.50;4938297;29;20212;-91
2024/01/26 13:02:27;;;;;;;6.17;1.53;;;;;;;14.49;34.19;99262.13;4942282;28;20202;-90
2024/01/26 13:04:53;;;;;;;3.43;0.60;;;;;;;14.24;34.77;99272.56;4957821;28;20186;-89
2024/01/26 13:07:47;;;;;;;;;;;;;;;;;;;;;
2024/01/26 13:10:16;;;;;;;2.20;0.77;;;;;;;14.06;35.56;99264.06;4960142;29;20164;-90
2024/01/26 13:12:42;;;;;;;4.90;1.47;;;;;;;14.09;35.78;99282.31;4959498;29;20190;-93
2024/01/26 13:15:09;;;;;;;2.23;0.60;;;;;;;14.42;36.13;99280.16;4959740;29;20261;-91
2024/01/26 13:17:55;;;;;;;2.67;0.77;;;;;;;14.55;35.18;99288.09;4958903;29;20656;-92
2024/01/26 13:20:38;;;;;;;2.30;0.60;;;;;;;14.84;34.42;99272.94;4942099;29;20207;-90
2024/01/26 13:23:46;;;;;;;3.17;0.93;;;;;;;14.23;35.07;99289.34;4941762;29;20237;-92
2024/01/26 13:26:25;;;;;;;;;;;;;;;;;;;;;
2024/01/26 13:29:26;;;;;;;1.07;0.50;;;;;;;14.57;34.35;99281.75;4958652;28;20192;-92
2024/01/26 13:31:52;;;;;;;2.30;0.60;;;;;;;14.33;34.50;99287.81;4959241;29;20216;-89
2024/01/26 13:34:17;;;;;;;2.33;0.90;;;;;;;14.25;34.05;99282.16;4958431;29;20269;-89
2024/01/26 13:36:44;;;;;;;2.23;0.63;;;;;;;14.18;35.56;99297.53;4958465;29;20251;-89
2024/01/26 13:39:10;;;;;;;3.87;1.23;;;;;;;14.45;34.61;99293.13;4958263;29;20739;-90
2024/01/26 13:41:39;;;;;;;5.83;2.03;;;;;;;14.80;34.70;99284.66;4958161;29;20255;-91
2024/01/26 13:44:08;;;;;;;3.50;0.90;;;;;;;14.89;34.18;99284.88;4958587;29;20216;-93
2024/01/26 13:46:36;;;;;;;3.03;0.77;;;;;;;15.18;34.27;99291.66;4959481;29;20258;-88
2024/01/26 13:49:21;;;;;;;2.40;0.60;;;;;;;15.24;33.73;99293.91;4941667;29;20183;-90
2024/01/26 13:51:47;;;;;;;2.97;0.93;;;;;;;14.86;33.74;99297.47;4958253;29;20597;-90
2024/01/26 13:54:14;;;;;;;1.57;0.70;;;;;;;15.18;33.94;99302.22;4958321;29;20179;-90
2024/01/26 13:56:40;;;;;;;1.80;0.67;;;;;;;15.00;33.60;99300.00;4958379;29;20191;-90
2024/01/26 13:59:06;;;;;;;2.20;0.77;;;;;;;14.62;34.02;99307.84;4958047;29;20206;-89
2024/01/26 14:01:34;;;;;;;3.97;1.13;;;;;;;14.57;34.63;99312.59;4957016;29;20547;-90
2024/01/26 14:04:02;;;;;;;2.00;0.73;;;;;;;14.66;33.73;99311.97;4958128;29;20633;-89
2024/01/26 14:06:38;;;;;;;7.10;0.63;;;;;;;14.57;34.79;99320.50;4957845;29;20178;-91
2024/01/26 14:09:05;;;;;;;2.20;1.20;;;;;;;14.63;35.03;99320.94;4958541;29;20165;-90
2024/01/26 14:11:33;;;;;;;0.80;0.50;;;;;;;14.39;34.89;99316.41;4940965;28;20187;-89
2024/01/26 14:14:05;;;;;;;4.33;1.00;;;;;;;14.28;34.92;99318.88;4957940;29;20340;-92
2024/01/26 14:16:31;;;;;;;6.43;1.10;;;;;;;14.30;35.08;99319.63;4957172;28;20241;-89
2024/01/26 14:18:59;;;;;;;3.00;0.93;;;;;;;14.48;35.19;99311.41;4958382;29;20284;-90
2024/01/26 14:21:24;;;;;;;7.43;2.93;;;;;;;14.27;35.28;99318.03;4958101;29;20189;-90
2024/01/26 14:24:13;;;;;;;3.23;1.30;;;;;;;14.25;35.21;99319.09;4957613;29;20177;-90
2024/01/26 14:26:38;;;;;;;6.97;1.33;;;;;;;13.97;35.84;99320.84;4957587;29;20219;-89
2024/01/26 14:29:10;;;;;;;3.53;0.97;;;;;;;13.59;36.22;99317.13;4957495;29;20202;-90
2024/01/26 14:31:35;;;;;;;3.70;1.23;;;;;;;13.49;36.71;99322.09;4957707;29;20178;-90
2024/01/26 14:34:01;;;;;;;5.03;1.13;;;;;;;13.75;36.28;99323.16;4940502;29;20181;-89
2024/01/26 14:36:27;;;;;;;1.90;0.93;;;;;;;13.74;35.92;99318.81;4940377;29;20216;-89
2024/01/26 14:38:52;;;;;;;4.73;1.27;;;;;;;13.66;36.44;99315.81;4940336;28;20272;-90
2024/01/26 14:41:18;;;;;;;2.37;0.80;;;;;;;13.71;36.14;99313.72;4940336;29;20323;-91
2024/01/26 14:43:43;;;;;;;5.90;1.33;;;;;;;13.37;36.56;99320.22;4957273;29;20631;-90
2024/01/26 14:46:09;;;;;;;2.87;1.13;;;;;;;13.31;36.94;99314.50;4940602;29;20212;-89
2024/01/26 14:48:38;;;;;;;3.07;0.90;;;;;;;13.14;37.49;99320.78;4957627;29;20663;-90
2024/01/26 14:51:13;;;;;;;1.23;0.80;;;;;;;13.14;37.67;99319.91;4957064;29;20177;-89
2024/01/26 14:53:38;;;;;;;4.43;1.60;;;;;;;13.22;37.27;99323.78;4957386;29;20161;-89
2024/01/26 14:56:08;;;;;;;2.13;1.03;;;;;;;13.34;37.05;99327.44;4956908;29;20173;-89
2024/01/26 14:58:34;;;;;;;5.70;1.00;;;;;;;13.25;37.24;99331.50;4956879;29;20214;-90
2024/01/26 15:00:59;;;;;;;3.30;1.10;;;;;;;13.38;36.58;99332.47;4956769;29;20209;-89
2024/01/26 15:03:25;;;;;;;2.07;0.80;;;;;;;13.52;37.17;99329.00;4939833;29;20649;-90
2024/01/26 15:05:50;;;;;;;3.17;1.17;;;;;;;13.52;36.72;99344.78;4957312;29;20239;-90
2024/01/26 15:08:16;;;;;;;3.80;1.00;;;;;;;13.40;36.60;99348.16;4956684;29;20195;-89
2024/01/26 15:10:49;;;;;;;3.63;1.00;;;;;;;13.46;36.57;99343.38;4939739;29;20176;-89
2024/01/26 15:13:15;;;;;;;3.77;1.00;;;;;;;13.21;36.78;99352.81;4956884;29;20249;-89
2024/01/26 15:15:43;;;;;;;4.23;1.03;;;;;;;12.80;37.39;99361.34;4956562;29;20234;-91
2024/01/26 15:18:08;;;;;;;7.93;1.67;;;;;;;12.87;37.16;99357.41;4955564;28;20191;-90
2024/01/26 15:20:34;;;;;;;1.63;0.87;;;;;;;12.95;37.26;99363.09;4956443;29;20234;-90
2024/01/26 15:22:59;;;;;;;2.07;1.07;;;;;;;12.82;37.29;99359.47;4956458;29;20627;-90
2024/01/26 15:25:25;;;;;;;3.67;1.00;;;;;;;12.73;37.34;99367.91;4956588;29;20191;-90
2024/01/26 15:27:50;;;;;;;3.57;1.10;;;;;;;12.63;37.57;99368.53;4939333;29;20646;-89
2024/01/26 15:30:16;;;;;;;4.20;1.40;;;;;;;12.64;37.65;99370.22;4956245;29;20195;-88
2024/01/26 15:32:42;;;;;;;2.13;0.60;;;;;;;12.69;37.63;99368.16;4956314;29;20180;-89
2024/01/26 15:35:10;;;;;;;6.67;1.40;;;;;;;12.72;38.17;99378.50;4956205;29;20323;-89
2024/01/26 15:37:36;;;;;;;4.97;1.37;;;;;;;12.62;37.98;99387.84;4939268;28;20191;-90
2024/01/26 15:40:01;;;;;;;5.07;1.03;;;;;;;12.51;37.95;99391.09;4956081;29;20204;-89
2024/01/26 15:42:27;;;;;;;6.40;1.50;;;;;;;12.52;38.07;99392.81;4956063;29;20187;-89
2024/01/26 15:44:53;;;;;;;2.90;1.03;;;;;;;12.58;38.21;99408.22;4955899;29;20214;-89
2024/01/26 15:47:19;;;;;;;1.50;0.83;;;;;;;12.32;38.18;99406.19;4939111;29;20180;-90
2024/01/26 15:49:50;;;;;;;2.13;1.10;;;;;;;12.49;38.52;99403.50;4939367;28;20668;-92
2024/01/26 15:52:15;;;;;;;3.67;0.87;;;;;;;12.40;38.54;99409.25;4956159;29;20196;-89
2024/01/26 15:54:40;;;;;;;2.10;0.97;;;;;;;12.40;38.20;99418.91;4938984;29;20623;-89
2024/01/26 15:57:07;;;;;;;2.87;1.10;;;;;;;12.44;38.04;99416.03;4956327;29;20226;-90
2024/01/26 15:59:33;;;;;;;2.43;1.40;;;;;;;12.25;38.26;99420.63;4955685;29;20238;-90
2024/01/26 16:02:00;;;;;;;2.17;1.20;;;;;;;12.17;38.62;99422.81;4956241;29;20260;-89
2024/01/26 16:04:26;;;;;;;2.93;1.30;;;;;;;12.45;38.02;99425.59;4956169;29;20279;-88
2024/01/26 16:06:52;;;;;;;4.30;1.03;;;;;;;12.40;38.67;99435.53;4955893;29;20254;-89
2024/01/26 16:09:18;;;;;;;4.03;1.97;;;;;;;12.27;39.11;99432.72;4955606;29;20184;-88
2024/01/26 16:11:45;;;;;;;2.80;1.23;;;;;;;12.49;38.69;99434.19;4938685;29;20188;-89
2024/01/26 16:14:13;;;;;;;9.07;1.83;;;;;;;12.23;39.04;99438.25;4955573;29;20180;-89
2024/01/26 16:16:40;;;;;;;6.33;1.93;;;;;;;12.41;38.61;99437.25;4955470;29;20184;-89
2024/01/26 16:19:05;;;;;;;5.37;1.47;;;;;;;12.40;38.67;99442.56;4955358;29;20222;-90
2024/01/26 16:21:31;;;;;;;4.03;1.80;;;;;;;12.49;38.51;99437.66;4955388;29;20182;-90
2024/01/26 16:23:57;;;;;;;3.63;1.53;;;;;;;12.58;38.36;99441.56;4955361;29;20246;-90
2024/01/26 16:26:22;;;;;;;7.80;1.90;;;;;;;12.61;38.16;99442.22;4939786;29;20218;-88
2024/01/26 16:28:55;;;;;;;7.10;2.13;;;;;;;12.47;38.84;99447.44;4955300;29;20650;-89
2024/01/26 16:31:21;;;;;;;7.27;2.10;;;;;;;12.56;38.77;99452.16;4938444;29;20621;-89
2024/01/26 16:33:46;;;;;;;7.30;1.90;;;;;;;12.50;38.70;99457.75;4938417;28;20273;-89
2024/01/26 16:36:12;;;;;;;3.83;1.63;;;;;;;12.32;39.34;99464.88;4955179;29;20513;-88
2024/01/26 16:38:37;;;;;;;4.03;1.80;;;;;;;12.16;39.67;99461.38;4954780;28;20175;-89
2024/01/26 16:41:03;;;;;;;5.20;1.53;;;;;;;12.10;39.88;99471.38;4955086;29;20208;-89
2024/01/26 16:43:28;;;;;;;5.63;1.80;;;;;;;12.02;39.86;99466.53;4955162;29;20183;-88
2024/01/26 16:45:53;;;;;;;4.63;1.83;;;;;;;11.93;40.16;99467.00;4955038;29;20204;-88
2024/01/26 16:48:20;;;;;;;8.30;2.63;;;;;;;11.77;40.14;99463.47;4955107;29;20176;-89
2024/01/26 16:50:45;;;;;;;7.33;1.93;;;;;;;11.83;40.18;99472.81;4955608;29;20186;-88
2024/01/26 16:53:11;;;;;;;8.70;2.30;;;;;;;11.92;39.85;99474.97;4938192;28;20182;-90
2024/01/26 16:55:36;;;;;;;8.40;2.60;;;;;;;11.89;39.50;99469.88;4938201;29;20194;-88
2024/01/26 16:58:02;;;;;;;4.57;2.23;;;;;;;11.77;39.91;99481.00;4954038;28;20178;-88
2024/01/26 17:00:27;;;;;;;6.53;2.40;;;;;;;11.69;40.09;99494.53;4955243;29;20207;-90
2024/01/26 17:02:56;;;;;;;3.27;1.40;;;;;;;11.57;40.41;99495.16;4954091;28;20218;-89
2024/01/26 17:05:24;;;;;;;7.37;1.90;;;;;;;11.71;40.17;99487.47;4938079;29;20190;-89
2024/01/26 17:07:49;;;;;;;5.00;1.70;;;;;;;11.87;40.41;99493.59;4954931;29;20179;-89
2024/01/26 17:10:15;;;;;;;10.73;2.50;;;;;;;11.66;40.42;99499.94;4954906;29;20227;-89
2024/01/26 17:12:42;;;;;;;11.07;2.23;;;;;;;11.87;40.15;99508.53;4954882;29;20182;-89
2024/01/26 17:15:07;;;;;;;7.60;2.13;;;;;;;11.79;40.40;99511.56;4955106;29;20185;-88
2024/01/26 17:17:33;;;;;;;5.53;1.63;;;;;;;11.77;40.37;99508.13;4954825;29;20184;-88
2024/01/26 17:19:59;;;;;;;3.13;1.30;;;;;;;11.43;40.67;99518.59;4937824;28;20211;-89
2024/01/26 17:22:24;;;;;;;4.83;1.80;;;;;;;11.46;40.64;99524.56;4953942;28;20183;-89
2024/01/26 17:24:49;;;;;;;2.67;1.30;;;;;;;11.40;40.52;99524.84;4955064;29;20193;-89
2024/01/26 17:27:24;;;;;;;4.70;1.97;;;;;;;11.04;40.92;99531.91;4937935;28;20628;-91
2024/01/26 17:29:49;;;;;;;6.37;1.67;;;;;;;11.03;41.07;99535.47;4955049;29;20170;-89
2024/01/26 17:32:15;;;;;;;6.90;2.47;;;;;;;11.09;41.14;99540.41;4955027;29;20185;-89
2024/01/26 17:34:42;;;;;;;5.00;1.67;;;;;;;11.07;41.35;99542.25;4954943;29;20186;-88
2024/01/26 17:37:08;;;;;;;5.57;1.67;;;;;;;11.13;41.25;99536.72;4937786;29;20345;-88
2024/01/26 17:39:33;;;;;;;6.10;2.03;;;;;;;11.12;41.21;99542.88;4954645;29;20694;-88
2024/01/26 17:41:59;;;;;;;3.47;1.60;;;;;;;10.94;41.65;99541.16;4954535;29;20244;-88
2024/01/26 17:44:25;;;;;;;4.70;2.30;;;;;;;10.93;41.39;99545.53;4954635;29;20635;-89
2024/01/26 17:46:50;;;;;;;4.17;1.80;;;;;;;10.92;41.19;99546.47;4938089;29;20534;-88
2024/01/26 17:49:16;;;;;;;5.33;1.70;;;;;;;10.75;41.87;99556.88;4954859;29;20193;-88
2024/01/26 17:51:41;;;;;;;7.07;2.33;;;;;;;10.69;41.91;99553.72;4956229;28;20654;-88
2024/01/26 17:54:07;;;;;;;6.13;1.77;;;;;;;10.65;41.93;99557.38;4958277;29;20616;-88
2024/01/26 17:56:32;;;;;;;9.23;2.70;;;;;;;10.75;41.48;99553.41;4957947;29;20185;-88
2024/01/26 17:58:57;;;;;;;17.07;5.77;;;;;;;10.88;41.56;99551.91;4957839;29;20198;-88
2024/01/26 18:01:24;;;;;;;23.43;7.97;;;;;;;10.81;41.50;99547.88;4958142;29;20173;-88
2024/01/26 18:03:50;;;;;;;15.83;5.87;;;;;;;10.65;41.24;99539.03;4957799;29;20181;-89
2024/01/26 18:06:15;;;;;;;19.00;6.60;;;;;;;10.63;41.54;99549.59;4957752;29;20177;-89
2024/01/26 18:08:41;;;;;;;8.00;2.50;;;;;;;10.79;41.21;99554.97;4957776;29;20177;-89
2024/01/26 18:11:07;;;;;;;9.77;2.70;;;;;;;10.62;41.39;99549.66;4956734;28;20632;-88
2024/01/26 18:13:32;;;;;;;5.87;1.87;;;;;;;10.67;41.50;99542.44;4956733;28;20185;-88
2024/01/26 18:15:57;;;;;;;8.50;2.70;;;;;;;10.63;41.79;99546.13;4957860;29;20177;-88
2024/01/26 18:18:23;;;;;;;8.23;2.13;;;;;;;10.53;41.78;99545.72;4957539;29;20195;-89
2024/01/26 18:20:48;;;;;;;7.03;1.73;;;;;;;10.40;42.08;99545.38;4957461;29;20201;-89
2024/01/26 18:23:14;;;;;;;5.07;2.00;;;;;;;10.31;42.37;99548.44;4957480;29;20177;-88
2024/01/26 18:25:39;;;;;;;4.47;1.90;;;;;;;10.31;42.16;99551.06;4957424;29;20177;-88
2024/01/26 18:28:05;;;;;;;3.77;1.73;;;;;;;10.47;42.06;99551.22;4957404;29;20208;-88
2024/01/26 18:30:31;;;;;;;3.33;1.33;;;;;;;10.22;42.15;99551.47;4957374;29;20173;-88
2024/01/26 18:32:56;;;;;;;8.60;1.73;;;;;;;10.12;42.42;99550.16;4956709;29;20247;-88
2024/01/26 18:35:22;;;;;;;6.57;2.10;;;;;;;9.99;42.69;99543.75;4940409;29;20188;-89
2024/01/26 18:37:47;;;;;;;7.10;2.90;;;;;;;9.93;42.57;99551.03;4957243;29;20177;-88
2024/01/26 18:40:13;;;;;;;7.40;3.63;;;;;;;10.05;42.54;99547.84;4957117;29;20659;-88
2024/01/26 18:42:39;;;;;;;6.37;2.57;;;;;;;10.13;42.14;99557.13;4940496;29;20185;-88
2024/01/26 18:45:05;;;;;;;7.00;2.13;;;;;;;10.08;42.07;99542.50;4957014;29;20192;-89
2024/01/26 18:47:30;;;;;;;8.67;3.47;;;;;;;9.99;42.37;99548.97;4956152;28;20177;-88
2024/01/26 18:49:56;;;;;;;9.27;3.63;;;;;;;10.04;42.05;99552.25;4957268;29;20562;-88
2024/01/26 18:52:21;;;;;;;5.73;2.43;;;;;;;9.81;41.98;99545.41;4940105;29;20185;-88
2024/01/26 18:54:47;;;;;;;11.37;4.37;;;;;;;9.66;42.72;99550.44;4956879;29;20623;-88
2024/01/26 18:57:12;;;;;;;10.27;3.70;;;;;;;9.67;42.66;99549.53;4957173;29;20695;-88
2024/01/26 18:59:38;;;;;;;11.53;3.50;;;;;;;9.74;42.73;99550.97;4956742;29;20211;-87
2024/01/26 19:02:05;;;;;;;3.93;1.87;;;;;;;9.46;42.98;99558.28;4956958;28;20260;-88
2024/01/26 19:04:31;;;;;;;4.80;2.13;;;;;;;9.51;42.71;99558.94;4939810;29;20623;-88
2024/01/26 19:06:58;;;;;;;5.40;1.67;;;;;;;9.53;42.36;99557.09;4956660;29;20191;-88
2024/01/26 19:09:23;;;;;;;3.60;1.57;;;;;;;9.57;42.23;99558.66;4956664;29;20168;-88
2024/01/26 19:11:49;;;;;;;7.20;2.63;;;;;;;9.30;43.13;99551.97;4956618;29;20614;-88
2024/01/26 19:14:14;;;;;;;7.27;2.70;;;;;;;9.34;42.90;99557.00;4956587;29;20188;-87
2024/01/26 19:16:40;;;;;;;6.47;2.50;;;;;;;9.17;43.55;99549.81;4956758;29;20185;-88
2024/01/26 19:19:05;;;;;;;14.03;3.50;;;;;;;9.00;43.79;99554.88;4956373;29;20304;-88
2024/01/26 19:21:31;;;;;;;7.63;2.13;;;;;;;9.05;43.50;99557.31;4956681;29;20173;-87
2024/01/26 19:23:56;;;;;;;8.33;2.63;;;;;;;9.00;44.02;99559.25;4956638;29;20267;-88
2024/01/26 19:26:22;;;;;;;10.33;3.23;;;;;;;9.01;44.09;99556.59;4956328;29;20682;-89
2024/01/26 19:28:48;;;;;;;8.17;2.37;;;;;;;8.71;44.81;99560.38;4956295;29;20540;-88
2024/01/26 19:31:15;;;;;;;8.13;3.20;;;;;;;8.63;45.29;99559.81;4939921;29;20184;-88
2024/01/26 19:33:41;;;;;;;8.80;2.47;;;;;;;8.67;44.78;99553.59;4956182;29;20173;-87
2024/01/26 19:36:07;;;;;;;13.53;3.07;;;;;;;8.62;45.21;99564.19;4956408;29;20681;-87
2024/01/26 19:38:32;;;;;;;10.97;2.67;;;;;;;8.58;45.19;99564.38;4956385;29;20173;-88
2024/01/26 19:40:58;;;;;;;9.70;3.07;;;;;;;8.63;44.78;99570.28;4955941;29;20193;-87
2024/01/26 19:43:24;;;;;;;3.37;1.73;;;;;;;8.40;45.15;99572.91;4956124;29;20185;-88
2024/01/26 19:45:49;;;;;;;6.63;2.23;;;;;;;8.65;44.92;99568.44;4938937;29;20207;-89
2024/01/26 19:48:28;;;;;;;6.33;2.13;;;;;;;8.65;44.62;99563.22;4955953;29;20646;-88
2024/01/26 19:50:54;;;;;;;4.83;1.97;;;;;;;8.80;44.80;99578.34;4956196;29;20161;-89
2024/01/26 19:53:19;;;;;;;6.13;2.30;;;;;;;8.78;44.59;99572.31;4939220;29;20265;-88
2024/01/26 19:55:47;;;;;;;5.33;1.80;;;;;;;8.90;44.52;99573.59;4955808;29;20625;-88
2024/01/26 19:58:12;;;;;;;4.27;1.77;;;;;;;8.82;44.63;99575.66;4938845;29;20287;-88
2024/01/26 20:00:39;;;;;;;6.20;2.07;;;;;;;8.67;44.41;99576.25;4955679;29;20278;-88
2024/01/26 20:03:04;;;;;;;4.77;1.83;;;;;;;8.51;45.01;99571.59;4938784;28;20599;-88
2024/01/26 20:05:30;;;;;;;2.40;1.17;;;;;;;8.65;45.00;99573.69;4955631;29;20259;-88
2024/01/26 20:07:56;;;;;;;4.03;1.53;;;;;;;8.55;44.63;99582.78;4954943;28;20692;-88
2024/01/26 20:10:21;;;;;;;4.50;1.97;;;;;;;8.48;44.97;99582.16;4955594;29;20551;-89
2024/01/26 20:12:46;;;;;;;8.13;2.00;;;;;;;8.33;45.18;99587.09;4955595;29;20177;-88
2024/01/26 20:15:13;;;;;;;9.00;2.67;;;;;;;8.57;44.76;99583.56;4937922;29;20200;-87
2024/01/26 20:17:38;;;;;;;3.43;1.63;;;;;;;8.63;44.91;99580.72;4955439;29;20191;-88
2024/01/26 20:20:05;;;;;;;5.53;1.57;;;;;;;8.84;44.17;99603.44;4938477;29;20301;-88
2024/01/26 20:22:30;;;;;;;6.63;1.77;;;;;;;8.77;43.94;99593.28;4955379;29;20240;-88
2024/01/26 20:24:56;;;;;;;7.20;1.60;;;;;;;8.82;44.17;99602.66;4955386;29;20185;-87
2024/01/26 20:27:22;;;;;;;4.33;1.63;;;;;;;8.76;44.19;99591.56;4955630;29;20184;-89
2024/01/26 20:29:47;;;;;;;5.00;1.53;;;;;;;8.57;44.58;99596.63;4954671;28;20181;-87
2024/01/26 20:32:13;;;;;;;4.13;1.33;;;;;;;8.52;44.39;99595.94;4955278;29;20262;-87
2024/01/26 20:34:38;;;;;;;4.80;2.00;;;;;;;8.56;45.05;99600.16;4954622;29;20191;-88
2024/01/26 20:37:04;;;;;;;7.73;2.10;;;;;;;8.50;44.79;99590.78;4938307;29;20186;-88
2024/01/26 20:39:29;;;;;;;4.27;1.33;;;;;;;8.61;44.42;99590.41;4954474;29;20208;-88
2024/01/26 20:41:57;;;;;;;4.07;1.37;;;;;;;8.43;45.04;99588.47;4955161;29;20439;-89
2024/01/26 20:44:23;;;;;;;3.77;1.30;;;;;;;8.42;44.54;99591.97;4955177;29;20203;-88
2024/01/26 20:46:49;;;;;;;6.13;1.50;;;;;;;8.44;44.54;99590.16;4955071;29;20287;-87
2024/01/26 20:49:14;;;;;;;3.23;1.10;;;;;;;8.46;44.96;99583.13;4954455;28;20255;-87
2024/01/26 20:51:40;;;;;;;4.60;1.23;;;;;;;8.40;44.57;99583.34;4955076;29;20181;-87
2024/01/26 20:54:05;;;;;;;4.23;1.40;;;;;;;8.33;45.05;99581.88;4938172;29;20187;-87
2024/01/26 20:56:33;;;;;;;2.63;1.37;;;;;;;8.09;45.41;99582.72;4955060;29;20177;-88
2024/01/26 20:58:59;;;;;;;4.47;1.37;;;;;;;8.22;45.24;99578.75;4938065;29;20189;-88
2024/01/26 21:01:25;;;;;;;2.43;1.27;;;;;;;8.15;45.23;99585.94;4955015;29;20182;-87
2024/01/26 21:03:53;;;;;;;3.10;1.20;;;;;;;8.14;45.61;99579.03;4954963;29;20278;-91
2024/01/26 21:06:19;;;;;;;4.90;2.00;;;;;;;8.02;45.84;99572.47;4938063;29;20196;-87
2024/01/26 21:08:45;;;;;;;4.30;1.53;;;;;;;8.16;45.45;99579.84;4955211;29;20177;-88
2024/01/26 21:11:13;;;;;;;3.47;1.30;;;;;;;8.16;45.58;99577.22;4939040;29;20512;-87
2024/01/26 21:13:39;;;;;;;4.63;1.47;;;;;;;8.26;44.87;99570.75;4955164;29;20180;-88
2024/01/26 21:16:04;;;;;;;4.83;1.20;;;;;;;8.20;45.12;99575.38;4955366;29;20196;-88
2024/01/26 21:18:30;;;;;;;6.80;1.80;;;;;;;8.20;45.22;99570.13;4954828;29;20206;-88
2024/01/26 21:21:04;;;;;;;5.13;1.30;;;;;;;8.22;45.37;99569.19;4955011;29;20197;-89
2024/01/26 21:23:30;;;;;;;2.27;1.00;;;;;;;8.13;45.85;99563.41;4937936;29;20179;-87
2024/01/26 21:25:56;;;;;;;7.87;1.40;;;;;;;8.13;45.12;99568.63;4940003;29;20661;-87
2024/01/26 21:28:24;;;;;;;4.23;1.47;;;;;;;8.04;45.05;99568.06;4957566;29;20185;-89
2024/01/26 21:30:49;;;;;;;6.77;2.03;;;;;;;8.05;45.71;99574.13;4941505;29;20180;-88
2024/01/26 21:33:15;;;;;;;2.37;1.13;;;;;;;8.26;45.02;99580.34;4958411;29;20654;-88
2024/01/26 21:35:40;;;;;;;3.37;1.43;;;;;;;8.23;45.09;99577.88;4958678;29;20632;-89
2024/01/26 21:38:06;;;;;;;6.33;1.53;;;;;;;8.05;45.92;99580.22;4957406;29;20620;-88
2024/01/26 21:40:31;;;;;;;4.30;1.40;;;;;;;8.18;45.19;99574.53;4941320;29;20542;-87
2024/01/26 21:42:57;;;;;;;2.40;1.20;;;;;;;8.14;45.30;99573.81;4958246;29;20692;-87
2024/01/26 21:45:24;;;;;;;3.53;1.33;;;;;;;8.22;44.70;99578.75;4957249;29;20716;-91
2024/01/26 21:47:50;;;;;;;3.53;1.70;;;;;;;8.13;45.46;99568.63;4957214;29;20338;-87
2024/01/26 21:50:18;;;;;;;4.87;1.23;;;;;;;8.32;45.17;99569.72;4958137;29;20239;-87
2024/01/26 21:52:44;;;;;;;2.20;1.10;;;;;;;8.40;44.60;99567.69;4958304;29;20270;-88
2024/01/26 21:55:10;;;;;;;3.20;1.37;;;;;;;8.31;44.59;99568.00;4958075;29;20186;-87
2024/01/26 21:57:36;;;;;;;2.37;0.93;;;;;;;7.91;45.66;99584.22;4957964;29;20177;-87
2024/01/26 22:00:03;;;;;;;5.13;1.20;;;;;;;7.93;45.81;99592.84;4957823;29;20206;-87
2024/01/26 22:02:28;;;;;;;2.20;0.90;;;;;;;7.96;45.86;99587.53;4956926;28;20545;-88
2024/01/26 22:04:54;;;;;;;6.47;2.10;;;;;;;8.03;45.42;99595.09;4957863;29;20193;-89
2024/01/26 22:07:19;;;;;;;6.27;1.37;;;;;;;8.10;45.34;99594.88;4957833;29;20182;-87
2024/01/26 22:09:45;;;;;;;3.30;1.50;;;;;;;8.12;45.44;99598.28;4957034;29;20274;-89
2024/01/26 22:12:11;;;;;;;2.03;1.10;;;;;;;7.91;46.09;99600.72;4957928;29;20262;-87
2024/01/26 22:14:36;;;;;;;3.40;1.00;;;;;;;7.74;45.98;99608.28;4957658;29;20185;-87
2024/01/26 22:17:02;;;;;;;4.47;1.17;;;;;;;8.02;45.78;99592.50;4957646;29;20253;-88
2024/01/26 22:19:27;;;;;;;2.57;1.13;;;;;;;7.98;46.23;99602.22;4957812;29;20230;-87
2024/01/26 22:21:53;;;;;;;5.50;1.50;;;;;;;7.89;46.06;99610.34;4957850;29;20188;-88
2024/01/26 22:24:19;;;;;;;4.67;1.53;;;;;;;8.09;45.64;99587.94;4957793;29;20180;-88
2024/01/26 22:26:44;;;;;;;1.83;0.70;;;;;;;8.00;45.97;99589.09;4957746;29;20182;-88
2024/01/26 22:29:10;;;;;;;2.27;1.20;;;;;;;8.13;45.69;99589.53;4940813;29;20204;-87
2024/01/26 22:31:35;;;;;;;2.20;0.67;;;;;;;7.93;45.64;99596.31;4957698;29;20186;-88
2024/01/26 22:34:01;;;;;;;9.30;1.90;;;;;;;7.79;45.95;99592.44;4940426;29;20638;-87
2024/01/26 22:36:26;;;;;;;2.60;1.00;;;;;;;7.93;45.87;99591.09;4940340;29;20605;-87
2024/01/26 22:38:56;;;;;;;4.27;1.30;;;;;;;7.65;45.93;99592.91;4940250;29;20675;-87
2024/01/26 22:41:22;;;;;;;3.57;1.33;;;;;;;7.76;46.23;99590.81;4957431;29;20260;-88
2024/01/26 22:43:47;;;;;;;2.97;1.10;;;;;;;7.80;45.94;99581.97;4957187;29;20716;-88
2024/01/26 22:46:13;;;;;;;5.37;1.27;;;;;;;7.88;45.76;99574.75;4956919;29;20659;-88
2024/01/26 22:48:39;;;;;;;3.93;1.53;;;;;;;7.84;46.14;99588.78;4957347;29;20259;-87
2024/01/26 22:51:04;;;;;;;2.07;1.10;;;;;;;7.86;45.70;99581.75;4957301;29;20321;-88
2024/01/26 22:53:30;;;;;;;3.63;1.30;;;;;;;7.86;45.92;99579.13;4957533;29;20197;-87
2024/01/26 22:55:55;;;;;;;2.37;1.00;;;;;;;7.77;45.92;99586.44;4956396;28;20186;-87
2024/01/26 22:58:20;;;;;;;3.40;1.40;;;;;;;7.71;46.13;99587.50;4940290;29;20182;-88
2024/01/26 23:00:49;;;;;;;7.13;1.20;;;;;;;7.73;46.45;99590.91;4940561;29;20206;-92
2024/01/26 23:03:15;;;;;;;2.10;1.00;;;;;;;7.78;45.71;99593.38;4957308;29;20230;-88
2024/01/26 23:05:40;;;;;;;2.53;1.10;;;;;;;7.78;45.62;99591.59;4956741;29;20266;-87
2024/01/26 23:08:06;;;;;;;5.23;1.43;;;;;;;7.73;46.39;99590.91;4956721;29;20192;-88
2024/01/26 23:10:32;;;;;;;6.33;1.83;;;;;;;7.83;46.19;99581.03;4955745;28;20625;-87
2024/01/26 23:12:58;;;;;;;2.27;0.83;;;;;;;7.80;46.08;99573.28;4956608;29;20177;-88
2024/01/26 23:15:23;;;;;;;2.17;0.97;;;;;;;7.78;46.17;99573.31;4955993;29;20213;-87
2024/01/26 23:17:49;;;;;;;4.50;1.03;;;;;;;7.73;46.21;99563.97;4956527;29;20178;-88
2024/01/26 23:20:14;;;;;;;3.13;0.93;;;;;;;7.67;46.54;99572.88;4956944;29;20202;-88
2024/01/26 23:22:40;;;;;;;2.50;1.13;;;;;;;7.48;47.00;99565.69;4956442;29;20671;-87
2024/01/26 23:25:06;;;;;;;2.83;1.03;;;;;;;7.46;46.72;99565.75;4956404;29;20182;-88
2024/01/26 23:27:32;;;;;;;2.50;1.23;;;;;;;7.55;46.32;99559.38;4956903;29;20206;-89
2024/01/26 23:29:58;;;;;;;3.07;1.17;;;;;;;7.44;46.69;99565.78;4956301;29;20181;-89
2024/01/26 23:32:24;;;;;;;3.47;1.20;;;;;;;7.47;46.65;99564.84;4956254;29;20620;-87
2024/01/26 23:34:50;;;;;;;3.07;1.67;;;;;;;7.62;46.72;99561.75;4956185;29;20245;-88
2024/01/26 23:37:16;;;;;;;2.60;1.10;;;;;;;7.64;46.52;99559.06;4956182;29;20209;-88
2024/01/26 23:39:43;;;;;;;2.97;1.43;;;;;;;7.50;46.81;99561.28;4956104;29;20244;-88
2024/01/26 23:42:08;;;;;;;2.57;1.00;;;;;;;7.27;47.28;99559.44;4956346;29;20174;-87
2024/01/26 23:44:34;;;;;;;2.17;1.10;;;;;;;7.32;47.41;99562.75;4938892;29;20177;-88
2024/01/26 23:46:59;;;;;;;2.27;1.00;;;;;;;7.30;47.27;99548.91;4956248;29;20255;-87
2024/01/26 23:49:25;;;;;;;2.30;0.90;;;;;;;7.23;47.74;99555.22;4955006;28;20181;-87
2024/01/26 23:51:50;;;;;;;9.87;1.30;;;;;;;7.48;46.70;99544.81;4955921;29;20178;-88
2024/01/26 23:54:16;;;;;;;2.63;1.00;;;;;;;7.50;46.64;99549.09;4955840;29;20189;-86
2024/01/26 23:56:42;;;;;;;4.87;1.07;;;;;;;7.61;46.70;99557.41;4954862;28;20228;-88
2024/01/26 23:59:08;;;;;;;2.67;0.93;;;;;;;7.28;47.00;99545.50;4939048;29;20212;-88
